sensor_id;sensor_type;location;lat;lon;timestamp;P1;durP1;ratioP1;P2;durP2;ratioP2
12120;SDS011;6124;59.460;17.908;2022-10-31T00:01:51;5.20;;;3.40;;
12120;SDS011;6124;59.460;17.908;2022-10-31T00:04:18;6.20;;;3.77;;
12120;SDS011;6124;59.460;17.908;2022-10-31T00:06:47;7.30;;;3.63;;
12120;SDS011;6124;59.460;17.908;2022-10-31T00:09:14;7.50;;;4.03;;
12120;SDS011;6124;59.460;17.908;2022-10-31T00:11:41;6.30;;;3.73;;
12120;SDS011;6124;59.460;17.908;2022-10-31T00:14:08;5.93;;;3.70;;
12120;SDS011;6124;59.460;17.908;2022-10-31T00:16:36;7.40;;;4.03;;
12120;SDS011;6124;59.460;17.908;2022-10-31T00:19:05;6.33;;;3.60;;
12120;SDS011;6124;59.460;17.908;2022-10-31T00:21:33;5.60;;;3.90;;
12120;SDS011;6124;59.460;17.908;2022-10-31T00:24:01;5.57;;;3.70;;
12120;SDS011;6124;59.460;17.908;2022-10-31T00:26:29;6.40;;;3.60;;
12120;SDS011;6124;59.460;17.908;2022-10-31T00:28:57;5.07;;;3.17;;
12120;SDS011;6124;59.460;17.908;2022-10-31T00:31:24;6.03;;;3.47;;
12120;SDS011;6124;59.460;17.908;2022-10-31T00:33:51;9.83;;;4.53;;
12120;SDS011;6124;59.460;17.908;2022-10-31T00:36:19;6.10;;;4.07;;
12120;SDS011;6124;59.460;17.908;2022-10-31T00:38:46;6.17;;;3.67;;
12120;SDS011;6124;59.460;17.908;2022-10-31T00:41:16;3.97;;;3.23;;
12120;SDS011;6124;59.460;17.908;2022-10-31T00:43:43;6.00;;;3.43;;
12120;SDS011;6124;59.460;17.908;2022-10-31T00:46:11;5.00;;;3.67;;
12120;SDS011;6124;59.460;17.908;2022-10-31T00:48:38;5.13;;;3.43;;
12120;SDS011;6124;59.460;17.908;2022-10-31T00:51:05;5.23;;;3.30;;
12120;SDS011;6124;59.460;17.908;2022-10-31T00:53:32;4.70;;;3.00;;
12120;SDS011;6124;59.460;17.908;2022-10-31T00:56:00;8.00;;;4.30;;
12120;SDS011;6124;59.460;17.908;2022-10-31T00:58:29;4.70;;;3.30;;
12120;SDS011;6124;59.460;17.908;2022-10-31T01:00:56;4.50;;;3.30;;
12120;SDS011;6124;59.460;17.908;2022-10-31T01:03:23;5.37;;;3.20;;
12120;SDS011;6124;59.460;17.908;2022-10-31T01:05:55;4.53;;;3.20;;
12120;SDS011;6124;59.460;17.908;2022-10-31T01:08:22;3.90;;;2.90;;
12120;SDS011;6124;59.460;17.908;2022-10-31T01:10:57;4.07;;;3.03;;
12120;SDS011;6124;59.460;17.908;2022-10-31T01:13:24;4.73;;;2.60;;
12120;SDS011;6124;59.460;17.908;2022-10-31T01:15:54;4.93;;;2.93;;
12120;SDS011;6124;59.460;17.908;2022-10-31T01:18:22;3.73;;;2.97;;
12120;SDS011;6124;59.460;17.908;2022-10-31T01:20:56;4.97;;;2.93;;
12120;SDS011;6124;59.460;17.908;2022-10-31T01:23:24;6.83;;;3.47;;
12120;SDS011;6124;59.460;17.908;2022-10-31T01:25:58;5.30;;;3.07;;
12120;SDS011;6124;59.460;17.908;2022-10-31T01:28:25;4.77;;;3.33;;
12120;SDS011;6124;59.460;17.908;2022-10-31T01:30:53;6.07;;;3.27;;
12120;SDS011;6124;59.460;17.908;2022-10-31T01:33:21;5.47;;;3.30;;
12120;SDS011;6124;59.460;17.908;2022-10-31T01:35:48;5.83;;;3.30;;
12120;SDS011;6124;59.460;17.908;2022-10-31T01:38:16;4.30;;;3.10;;
12120;SDS011;6124;59.460;17.908;2022-10-31T01:40:43;4.43;;;3.07;;
12120;SDS011;6124;59.460;17.908;2022-10-31T01:43:11;4.00;;;2.80;;
12120;SDS011;6124;59.460;17.908;2022-10-31T01:45:40;4.67;;;3.07;;
12120;SDS011;6124;59.460;17.908;2022-10-31T01:48:09;5.40;;;3.10;;
12120;SDS011;6124;59.460;17.908;2022-10-31T01:50:40;5.73;;;3.13;;
12120;SDS011;6124;59.460;17.908;2022-10-31T01:53:09;5.10;;;3.00;;
12120;SDS011;6124;59.460;17.908;2022-10-31T01:55:38;4.80;;;3.20;;
12120;SDS011;6124;59.460;17.908;2022-10-31T01:58:06;4.73;;;3.20;;
12120;SDS011;6124;59.460;17.908;2022-10-31T02:00:34;4.67;;;3.20;;
12120;SDS011;6124;59.460;17.908;2022-10-31T02:03:01;4.97;;;3.00;;
12120;SDS011;6124;59.460;17.908;2022-10-31T02:05:29;3.87;;;2.70;;
12120;SDS011;6124;59.460;17.908;2022-10-31T02:07:59;6.27;;;3.20;;
12120;SDS011;6124;59.460;17.908;2022-10-31T02:10:31;4.73;;;2.87;;
12120;SDS011;6124;59.460;17.908;2022-10-31T02:13:00;4.30;;;3.07;;
12120;SDS011;6124;59.460;17.908;2022-10-31T02:15:28;6.77;;;3.47;;
12120;SDS011;6124;59.460;17.908;2022-10-31T02:17:56;4.77;;;2.73;;
12120;SDS011;6124;59.460;17.908;2022-10-31T02:20:24;4.50;;;3.37;;
12120;SDS011;6124;59.460;17.908;2022-10-31T02:23:03;5.43;;;3.40;;
12120;SDS011;6124;59.460;17.908;2022-10-31T02:25:45;5.53;;;3.00;;
12120;SDS011;6124;59.460;17.908;2022-10-31T02:28:25;3.53;;;2.83;;
12120;SDS011;6124;59.460;17.908;2022-10-31T02:31:04;4.60;;;3.07;;
12120;SDS011;6124;59.460;17.908;2022-10-31T02:33:35;4.13;;;2.90;;
12120;SDS011;6124;59.460;17.908;2022-10-31T02:36:07;5.30;;;2.90;;
12120;SDS011;6124;59.460;17.908;2022-10-31T02:38:42;4.57;;;2.70;;
12120;SDS011;6124;59.460;17.908;2022-10-31T02:41:15;4.80;;;3.20;;
12120;SDS011;6124;59.460;17.908;2022-10-31T02:43:48;3.40;;;2.37;;
12120;SDS011;6124;59.460;17.908;2022-10-31T02:46:23;5.87;;;2.87;;
12120;SDS011;6124;59.460;17.908;2022-10-31T02:48:52;5.60;;;2.73;;
12120;SDS011;6124;59.460;17.908;2022-10-31T02:51:20;4.87;;;3.40;;
12120;SDS011;6124;59.460;17.908;2022-10-31T02:53:47;5.17;;;3.20;;
12120;SDS011;6124;59.460;17.908;2022-10-31T02:56:15;3.93;;;2.60;;
12120;SDS011;6124;59.460;17.908;2022-10-31T02:58:44;5.93;;;3.40;;
12120;SDS011;6124;59.460;17.908;2022-10-31T03:04:18;3.37;;;2.63;;
12120;SDS011;6124;59.460;17.908;2022-10-31T03:06:49;4.03;;;3.03;;
12120;SDS011;6124;59.460;17.908;2022-10-31T03:09:20;3.57;;;3.10;;
12120;SDS011;6124;59.460;17.908;2022-10-31T03:14:34;7.50;;;3.50;;
12120;SDS011;6124;59.460;17.908;2022-10-31T03:17:05;4.67;;;3.10;;
12120;SDS011;6124;59.460;17.908;2022-10-31T03:19:35;5.20;;;3.17;;
12120;SDS011;6124;59.460;17.908;2022-10-31T03:22:04;4.60;;;3.50;;
12120;SDS011;6124;59.460;17.908;2022-10-31T03:24:35;5.17;;;3.67;;
12120;SDS011;6124;59.460;17.908;2022-10-31T03:27:04;6.60;;;3.80;;
12120;SDS011;6124;59.460;17.908;2022-10-31T03:29:32;4.90;;;3.23;;
12120;SDS011;6124;59.460;17.908;2022-10-31T03:32:02;6.40;;;3.70;;
12120;SDS011;6124;59.460;17.908;2022-10-31T03:34:30;6.00;;;3.40;;
12120;SDS011;6124;59.460;17.908;2022-10-31T03:37:00;6.00;;;3.77;;
12120;SDS011;6124;59.460;17.908;2022-10-31T03:39:28;7.37;;;4.00;;
12120;SDS011;6124;59.460;17.908;2022-10-31T03:41:57;5.13;;;3.60;;
12120;SDS011;6124;59.460;17.908;2022-10-31T03:44:26;7.53;;;3.87;;
12120;SDS011;6124;59.460;17.908;2022-10-31T03:46:54;7.47;;;4.20;;
12120;SDS011;6124;59.460;17.908;2022-10-31T03:49:21;4.77;;;3.43;;
12120;SDS011;6124;59.460;17.908;2022-10-31T03:51:50;6.80;;;3.83;;
12120;SDS011;6124;59.460;17.908;2022-10-31T03:54:25;5.23;;;3.63;;
12120;SDS011;6124;59.460;17.908;2022-10-31T03:56:53;5.23;;;3.60;;
12120;SDS011;6124;59.460;17.908;2022-10-31T03:59:24;8.17;;;4.03;;
12120;SDS011;6124;59.460;17.908;2022-10-31T04:01:54;5.10;;;3.70;;
12120;SDS011;6124;59.460;17.908;2022-10-31T04:04:23;8.47;;;4.40;;
12120;SDS011;6124;59.460;17.908;2022-10-31T04:06:51;6.80;;;4.30;;
12120;SDS011;6124;59.460;17.908;2022-10-31T04:09:20;7.10;;;4.17;;
12120;SDS011;6124;59.460;17.908;2022-10-31T04:11:53;6.53;;;3.97;;
12120;SDS011;6124;59.460;17.908;2022-10-31T04:14:22;5.23;;;4.00;;
12120;SDS011;6124;59.460;17.908;2022-10-31T04:16:51;8.33;;;4.27;;
12120;SDS011;6124;59.460;17.908;2022-10-31T04:19:18;6.67;;;4.43;;
12120;SDS011;6124;59.460;17.908;2022-10-31T04:21:45;7.03;;;3.80;;
12120;SDS011;6124;59.460;17.908;2022-10-31T04:24:13;5.07;;;3.83;;
12120;SDS011;6124;59.460;17.908;2022-10-31T04:26:40;7.07;;;4.13;;
12120;SDS011;6124;59.460;17.908;2022-10-31T04:29:08;6.53;;;3.87;;
12120;SDS011;6124;59.460;17.908;2022-10-31T04:31:36;5.90;;;4.30;;
12120;SDS011;6124;59.460;17.908;2022-10-31T04:34:03;6.17;;;4.20;;
12120;SDS011;6124;59.460;17.908;2022-10-31T04:36:30;6.17;;;3.87;;
12120;SDS011;6124;59.460;17.908;2022-10-31T04:38:57;7.40;;;4.53;;
12120;SDS011;6124;59.460;17.908;2022-10-31T04:41:25;9.17;;;4.50;;
12120;SDS011;6124;59.460;17.908;2022-10-31T04:43:52;9.13;;;4.20;;
12120;SDS011;6124;59.460;17.908;2022-10-31T04:46:20;8.57;;;4.20;;
12120;SDS011;6124;59.460;17.908;2022-10-31T04:48:48;8.40;;;4.73;;
12120;SDS011;6124;59.460;17.908;2022-10-31T04:51:15;7.53;;;4.20;;
12120;SDS011;6124;59.460;17.908;2022-10-31T04:53:42;7.73;;;4.40;;
12120;SDS011;6124;59.460;17.908;2022-10-31T04:56:09;9.27;;;3.97;;
12120;SDS011;6124;59.460;17.908;2022-10-31T04:58:37;6.67;;;4.00;;
12120;SDS011;6124;59.460;17.908;2022-10-31T05:01:04;7.87;;;4.17;;
12120;SDS011;6124;59.460;17.908;2022-10-31T05:03:32;7.53;;;4.30;;
12120;SDS011;6124;59.460;17.908;2022-10-31T05:06:00;7.03;;;4.13;;
12120;SDS011;6124;59.460;17.908;2022-10-31T05:08:27;5.93;;;3.80;;
12120;SDS011;6124;59.460;17.908;2022-10-31T05:10:54;12.93;;;4.47;;
12120;SDS011;6124;59.460;17.908;2022-10-31T05:13:21;9.83;;;4.90;;
12120;SDS011;6124;59.460;17.908;2022-10-31T05:15:49;10.67;;;4.80;;
12120;SDS011;6124;59.460;17.908;2022-10-31T05:18:16;12.23;;;5.67;;
12120;SDS011;6124;59.460;17.908;2022-10-31T05:20:45;11.83;;;5.27;;
12120;SDS011;6124;59.460;17.908;2022-10-31T05:23:12;15.67;;;5.50;;
12120;SDS011;6124;59.460;17.908;2022-10-31T05:25:39;15.67;;;6.63;;
12120;SDS011;6124;59.460;17.908;2022-10-31T05:28:07;17.77;;;6.70;;
12120;SDS011;6124;59.460;17.908;2022-10-31T05:30:34;17.00;;;6.47;;
12120;SDS011;6124;59.460;17.908;2022-10-31T05:33:02;11.17;;;5.80;;
12120;SDS011;6124;59.460;17.908;2022-10-31T05:35:30;31.13;;;9.53;;
12120;SDS011;6124;59.460;17.908;2022-10-31T05:37:59;12.90;;;7.07;;
12120;SDS011;6124;59.460;17.908;2022-10-31T05:40:26;16.03;;;7.10;;
12120;SDS011;6124;59.460;17.908;2022-10-31T05:42:54;21.07;;;7.43;;
12120;SDS011;6124;59.460;17.908;2022-10-31T05:45:23;11.83;;;6.33;;
12120;SDS011;6124;59.460;17.908;2022-10-31T05:47:51;25.50;;;8.80;;
12120;SDS011;6124;59.460;17.908;2022-10-31T05:50:18;28.23;;;8.57;;
12120;SDS011;6124;59.460;17.908;2022-10-31T05:52:46;17.83;;;7.73;;
12120;SDS011;6124;59.460;17.908;2022-10-31T05:55:14;18.37;;;8.73;;
12120;SDS011;6124;59.460;17.908;2022-10-31T05:57:42;41.20;;;11.20;;
12120;SDS011;6124;59.460;17.908;2022-10-31T06:00:09;21.87;;;8.80;;
12120;SDS011;6124;59.460;17.908;2022-10-31T06:02:36;18.17;;;9.30;;
12120;SDS011;6124;59.460;17.908;2022-10-31T06:05:04;17.23;;;9.20;;
12120;SDS011;6124;59.460;17.908;2022-10-31T06:07:32;19.83;;;8.60;;
12120;SDS011;6124;59.460;17.908;2022-10-31T06:10:00;21.90;;;10.27;;
12120;SDS011;6124;59.460;17.908;2022-10-31T06:12:29;22.10;;;9.83;;
12120;SDS011;6124;59.460;17.908;2022-10-31T06:14:56;30.97;;;11.07;;
12120;SDS011;6124;59.460;17.908;2022-10-31T06:17:23;21.57;;;9.80;;
12120;SDS011;6124;59.460;17.908;2022-10-31T06:19:50;24.80;;;9.97;;
12120;SDS011;6124;59.460;17.908;2022-10-31T06:22:18;20.07;;;9.97;;
12120;SDS011;6124;59.460;17.908;2022-10-31T06:24:45;30.30;;;10.33;;
12120;SDS011;6124;59.460;17.908;2022-10-31T06:27:12;41.87;;;12.80;;
12120;SDS011;6124;59.460;17.908;2022-10-31T06:29:41;23.33;;;10.53;;
12120;SDS011;6124;59.460;17.908;2022-10-31T06:32:11;22.80;;;10.23;;
12120;SDS011;6124;59.460;17.908;2022-10-31T06:34:39;47.57;;;12.37;;
12120;SDS011;6124;59.460;17.908;2022-10-31T06:37:06;33.97;;;12.30;;
12120;SDS011;6124;59.460;17.908;2022-10-31T06:39:33;34.90;;;12.23;;
12120;SDS011;6124;59.460;17.908;2022-10-31T06:42:01;16.27;;;9.47;;
12120;SDS011;6124;59.460;17.908;2022-10-31T06:44:28;18.73;;;10.00;;
12120;SDS011;6124;59.460;17.908;2022-10-31T06:46:57;22.30;;;10.87;;
12120;SDS011;6124;59.460;17.908;2022-10-31T06:49:24;16.70;;;9.17;;
12120;SDS011;6124;59.460;17.908;2022-10-31T06:51:51;18.07;;;9.30;;
12120;SDS011;6124;59.460;17.908;2022-10-31T06:54:18;20.17;;;9.43;;
12120;SDS011;6124;59.460;17.908;2022-10-31T06:56:46;20.33;;;10.13;;
12120;SDS011;6124;59.460;17.908;2022-10-31T06:59:13;15.77;;;9.97;;
12120;SDS011;6124;59.460;17.908;2022-10-31T07:01:41;37.33;;;11.77;;
12120;SDS011;6124;59.460;17.908;2022-10-31T07:04:10;17.27;;;9.43;;
12120;SDS011;6124;59.460;17.908;2022-10-31T07:06:37;18.70;;;9.07;;
12120;SDS011;6124;59.460;17.908;2022-10-31T07:09:05;24.53;;;9.60;;
12120;SDS011;6124;59.460;17.908;2022-10-31T07:11:32;37.57;;;10.87;;
12120;SDS011;6124;59.460;17.908;2022-10-31T07:13:59;19.13;;;9.57;;
12120;SDS011;6124;59.460;17.908;2022-10-31T07:16:27;17.23;;;8.90;;
12120;SDS011;6124;59.460;17.908;2022-10-31T07:18:54;19.67;;;9.07;;
12120;SDS011;6124;59.460;17.908;2022-10-31T07:21:23;19.33;;;9.40;;
12120;SDS011;6124;59.460;17.908;2022-10-31T07:23:50;22.10;;;9.30;;
12120;SDS011;6124;59.460;17.908;2022-10-31T07:26:17;20.87;;;9.73;;
12120;SDS011;6124;59.460;17.908;2022-10-31T07:28:45;23.57;;;9.07;;
12120;SDS011;6124;59.460;17.908;2022-10-31T07:31:13;22.53;;;9.87;;
12120;SDS011;6124;59.460;17.908;2022-10-31T07:33:40;55.47;;;13.80;;
12120;SDS011;6124;59.460;17.908;2022-10-31T07:36:07;18.57;;;9.50;;
12120;SDS011;6124;59.460;17.908;2022-10-31T07:38:36;22.37;;;10.13;;
12120;SDS011;6124;59.460;17.908;2022-10-31T07:41:03;17.67;;;8.80;;
12120;SDS011;6124;59.460;17.908;2022-10-31T07:43:30;25.77;;;10.00;;
12120;SDS011;6124;59.460;17.908;2022-10-31T07:45:57;28.33;;;11.90;;
12120;SDS011;6124;59.460;17.908;2022-10-31T07:48:25;24.70;;;9.90;;
12120;SDS011;6124;59.460;17.908;2022-10-31T07:50:52;19.33;;;9.77;;
12120;SDS011;6124;59.460;17.908;2022-10-31T07:53:19;24.30;;;10.63;;
12120;SDS011;6124;59.460;17.908;2022-10-31T07:55:48;29.87;;;10.70;;
12120;SDS011;6124;59.460;17.908;2022-10-31T07:58:15;17.63;;;9.90;;
12120;SDS011;6124;59.460;17.908;2022-10-31T08:00:44;22.10;;;10.50;;
12120;SDS011;6124;59.460;17.908;2022-10-31T08:03:13;20.67;;;9.67;;
12120;SDS011;6124;59.460;17.908;2022-10-31T08:05:40;27.03;;;10.60;;
12120;SDS011;6124;59.460;17.908;2022-10-31T08:08:09;27.70;;;12.23;;
12120;SDS011;6124;59.460;17.908;2022-10-31T08:10:37;26.13;;;11.97;;
12120;SDS011;6124;59.460;17.908;2022-10-31T08:13:07;35.20;;;12.37;;
12120;SDS011;6124;59.460;17.908;2022-10-31T08:15:34;34.57;;;11.97;;
12120;SDS011;6124;59.460;17.908;2022-10-31T08:18:04;30.57;;;12.87;;
12120;SDS011;6124;59.460;17.908;2022-10-31T08:20:32;36.07;;;12.80;;
12120;SDS011;6124;59.460;17.908;2022-10-31T08:22:59;30.03;;;12.43;;
12120;SDS011;6124;59.460;17.908;2022-10-31T08:25:28;39.60;;;14.27;;
12120;SDS011;6124;59.460;17.908;2022-10-31T08:27:55;39.07;;;14.47;;
12120;SDS011;6124;59.460;17.908;2022-10-31T08:30:26;33.60;;;14.63;;
12120;SDS011;6124;59.460;17.908;2022-10-31T08:32:59;31.23;;;13.50;;
12120;SDS011;6124;59.460;17.908;2022-10-31T08:35:27;27.73;;;13.40;;
12120;SDS011;6124;59.460;17.908;2022-10-31T08:37:54;34.50;;;13.47;;
12120;SDS011;6124;59.460;17.908;2022-10-31T08:40:22;39.37;;;15.67;;
12120;SDS011;6124;59.460;17.908;2022-10-31T08:42:55;37.23;;;14.73;;
12120;SDS011;6124;59.460;17.908;2022-10-31T08:45:24;28.87;;;12.97;;
12120;SDS011;6124;59.460;17.908;2022-10-31T08:47:51;30.90;;;12.83;;
12120;SDS011;6124;59.460;17.908;2022-10-31T08:50:18;34.50;;;13.90;;
12120;SDS011;6124;59.460;17.908;2022-10-31T08:52:46;36.93;;;14.80;;
12120;SDS011;6124;59.460;17.908;2022-10-31T08:55:13;36.53;;;13.83;;
12120;SDS011;6124;59.460;17.908;2022-10-31T08:57:40;30.83;;;14.07;;
12120;SDS011;6124;59.460;17.908;2022-10-31T09:00:08;34.93;;;15.13;;
12120;SDS011;6124;59.460;17.908;2022-10-31T09:02:37;42.10;;;16.23;;
12120;SDS011;6124;59.460;17.908;2022-10-31T09:05:04;40.60;;;14.90;;
12120;SDS011;6124;59.460;17.908;2022-10-31T09:07:32;35.50;;;14.53;;
12120;SDS011;6124;59.460;17.908;2022-10-31T09:09:59;38.20;;;14.70;;
12120;SDS011;6124;59.460;17.908;2022-10-31T09:12:26;35.30;;;13.83;;
12120;SDS011;6124;59.460;17.908;2022-10-31T09:14:53;34.80;;;15.03;;
12120;SDS011;6124;59.460;17.908;2022-10-31T09:17:20;36.40;;;15.40;;
12120;SDS011;6124;59.460;17.908;2022-10-31T09:19:49;35.77;;;13.97;;
12120;SDS011;6124;59.460;17.908;2022-10-31T09:22:16;35.70;;;14.30;;
12120;SDS011;6124;59.460;17.908;2022-10-31T09:24:43;32.27;;;13.80;;
12120;SDS011;6124;59.460;17.908;2022-10-31T09:27:11;32.93;;;15.03;;
12120;SDS011;6124;59.460;17.908;2022-10-31T09:29:38;37.57;;;15.30;;
12120;SDS011;6124;59.460;17.908;2022-10-31T09:32:05;26.13;;;12.83;;
12120;SDS011;6124;59.460;17.908;2022-10-31T09:34:32;30.07;;;14.07;;
12120;SDS011;6124;59.460;17.908;2022-10-31T09:37:01;29.67;;;13.27;;
12120;SDS011;6124;59.460;17.908;2022-10-31T09:39:28;28.77;;;12.97;;
12120;SDS011;6124;59.460;17.908;2022-10-31T09:42:01;27.23;;;12.77;;
12120;SDS011;6124;59.460;17.908;2022-10-31T09:44:32;24.67;;;12.47;;
12120;SDS011;6124;59.460;17.908;2022-10-31T09:47:02;25.40;;;13.00;;
12120;SDS011;6124;59.460;17.908;2022-10-31T09:49:37;25.30;;;11.90;;
12120;SDS011;6124;59.460;17.908;2022-10-31T09:52:11;21.23;;;11.77;;
12120;SDS011;6124;59.460;17.908;2022-10-31T09:54:40;24.43;;;12.27;;
12120;SDS011;6124;59.460;17.908;2022-10-31T09:57:10;28.13;;;13.10;;
12120;SDS011;6124;59.460;17.908;2022-10-31T09:59:39;22.60;;;12.13;;
12120;SDS011;6124;59.460;17.908;2022-10-31T10:02:10;20.53;;;11.23;;
12120;SDS011;6124;59.460;17.908;2022-10-31T10:04:42;19.67;;;11.40;;
12120;SDS011;6124;59.460;17.908;2022-10-31T10:07:13;20.50;;;11.27;;
12120;SDS011;6124;59.460;17.908;2022-10-31T10:09:41;18.90;;;11.10;;
12120;SDS011;6124;59.460;17.908;2022-10-31T10:12:09;21.00;;;10.97;;
12120;SDS011;6124;59.460;17.908;2022-10-31T10:14:44;18.60;;;10.37;;
12120;SDS011;6124;59.460;17.908;2022-10-31T10:17:17;17.93;;;11.30;;
12120;SDS011;6124;59.460;17.908;2022-10-31T10:19:55;21.20;;;11.13;;
12120;SDS011;6124;59.460;17.908;2022-10-31T10:22:28;18.23;;;10.60;;
12120;SDS011;6124;59.460;17.908;2022-10-31T10:25:01;19.67;;;11.53;;
12120;SDS011;6124;59.460;17.908;2022-10-31T10:27:37;18.70;;;11.30;;
12120;SDS011;6124;59.460;17.908;2022-10-31T10:30:11;19.93;;;10.93;;
12120;SDS011;6124;59.460;17.908;2022-10-31T10:32:40;22.67;;;11.60;;
12120;SDS011;6124;59.460;17.908;2022-10-31T10:35:11;19.33;;;11.03;;
12120;SDS011;6124;59.460;17.908;2022-10-31T10:37:43;21.10;;;11.23;;
12120;SDS011;6124;59.460;17.908;2022-10-31T10:40:13;17.27;;;10.97;;
12120;SDS011;6124;59.460;17.908;2022-10-31T10:42:41;17.23;;;10.67;;
12120;SDS011;6124;59.460;17.908;2022-10-31T10:45:26;18.43;;;11.13;;
12120;SDS011;6124;59.460;17.908;2022-10-31T10:48:13;14.87;;;10.43;;
12120;SDS011;6124;59.460;17.908;2022-10-31T10:50:42;16.53;;;10.10;;
12120;SDS011;6124;59.460;17.908;2022-10-31T10:53:16;16.33;;;10.53;;
12120;SDS011;6124;59.460;17.908;2022-10-31T10:55:48;14.63;;;9.67;;
12120;SDS011;6124;59.460;17.908;2022-10-31T10:58:17;14.37;;;9.93;;
12120;SDS011;6124;59.460;17.908;2022-10-31T11:00:44;17.33;;;9.93;;
12120;SDS011;6124;59.460;17.908;2022-10-31T11:03:13;15.57;;;9.87;;
12120;SDS011;6124;59.460;17.908;2022-10-31T11:05:41;14.83;;;9.50;;
12120;SDS011;6124;59.460;17.908;2022-10-31T11:08:10;17.40;;;9.60;;
12120;SDS011;6124;59.460;17.908;2022-10-31T11:10:38;14.60;;;9.80;;
12120;SDS011;6124;59.460;17.908;2022-10-31T11:13:20;13.57;;;9.13;;
12120;SDS011;6124;59.460;17.908;2022-10-31T11:15:53;12.03;;;9.10;;
12120;SDS011;6124;59.460;17.908;2022-10-31T11:18:20;13.40;;;8.90;;
12120;SDS011;6124;59.460;17.908;2022-10-31T11:20:50;12.73;;;8.90;;
12120;SDS011;6124;59.460;17.908;2022-10-31T11:23:18;14.17;;;8.90;;
12120;SDS011;6124;59.460;17.908;2022-10-31T11:25:51;12.77;;;8.67;;
12120;SDS011;6124;59.460;17.908;2022-10-31T11:28:18;14.00;;;9.37;;
12120;SDS011;6124;59.460;17.908;2022-10-31T11:30:48;15.47;;;9.13;;
12120;SDS011;6124;59.460;17.908;2022-10-31T11:33:17;14.40;;;9.40;;
12120;SDS011;6124;59.460;17.908;2022-10-31T11:35:44;14.10;;;8.90;;
12120;SDS011;6124;59.460;17.908;2022-10-31T11:38:14;12.10;;;8.23;;
12120;SDS011;6124;59.460;17.908;2022-10-31T11:40:51;12.40;;;8.87;;
12120;SDS011;6124;59.460;17.908;2022-10-31T11:43:19;15.47;;;9.40;;
12120;SDS011;6124;59.460;17.908;2022-10-31T11:45:46;10.67;;;7.80;;
12120;SDS011;6124;59.460;17.908;2022-10-31T11:48:15;12.13;;;8.30;;
12120;SDS011;6124;59.460;17.908;2022-10-31T11:50:48;12.20;;;7.63;;
12120;SDS011;6124;59.460;17.908;2022-10-31T11:53:17;10.03;;;7.40;;
12120;SDS011;6124;59.460;17.908;2022-10-31T11:55:44;9.73;;;6.23;;
12120;SDS011;6124;59.460;17.908;2022-10-31T11:58:21;10.67;;;6.63;;
12120;SDS011;6124;59.460;17.908;2022-10-31T12:00:49;8.37;;;6.43;;
12120;SDS011;6124;59.460;17.908;2022-10-31T12:03:20;10.03;;;6.63;;
12120;SDS011;6124;59.460;17.908;2022-10-31T12:05:53;10.53;;;6.63;;
12120;SDS011;6124;59.460;17.908;2022-10-31T12:08:23;8.47;;;6.50;;
12120;SDS011;6124;59.460;17.908;2022-10-31T12:10:54;9.90;;;6.60;;
12120;SDS011;6124;59.460;17.908;2022-10-31T12:13:30;10.30;;;6.57;;
12120;SDS011;6124;59.460;17.908;2022-10-31T12:16:00;9.70;;;6.37;;
12120;SDS011;6124;59.460;17.908;2022-10-31T12:18:32;9.23;;;6.33;;
12120;SDS011;6124;59.460;17.908;2022-10-31T12:21:08;7.97;;;6.00;;
12120;SDS011;6124;59.460;17.908;2022-10-31T12:23:40;11.40;;;6.03;;
12120;SDS011;6124;59.460;17.908;2022-10-31T12:26:15;9.47;;;6.43;;
12120;SDS011;6124;59.460;17.908;2022-10-31T12:28:57;9.20;;;6.07;;
12120;SDS011;6124;59.460;17.908;2022-10-31T12:31:32;9.93;;;6.07;;
12120;SDS011;6124;59.460;17.908;2022-10-31T12:36:50;8.00;;;6.20;;
12120;SDS011;6124;59.460;17.908;2022-10-31T12:39:24;11.17;;;5.87;;
12120;SDS011;6124;59.460;17.908;2022-10-31T12:41:52;8.70;;;5.70;;
12120;SDS011;6124;59.460;17.908;2022-10-31T12:47:07;10.00;;;5.80;;
12120;SDS011;6124;59.460;17.908;2022-10-31T12:49:42;9.93;;;6.20;;
12120;SDS011;6124;59.460;17.908;2022-10-31T12:52:16;10.23;;;5.80;;
12120;SDS011;6124;59.460;17.908;2022-10-31T12:54:52;10.83;;;5.90;;
12120;SDS011;6124;59.460;17.908;2022-10-31T12:57:23;10.33;;;5.73;;
12120;SDS011;6124;59.460;17.908;2022-10-31T12:59:56;8.20;;;5.47;;
12120;SDS011;6124;59.460;17.908;2022-10-31T13:02:26;10.97;;;5.77;;
12120;SDS011;6124;59.460;17.908;2022-10-31T13:04:55;12.13;;;5.23;;
12120;SDS011;6124;59.460;17.908;2022-10-31T13:07:23;10.13;;;5.70;;
12120;SDS011;6124;59.460;17.908;2022-10-31T13:09:54;9.77;;;5.63;;
12120;SDS011;6124;59.460;17.908;2022-10-31T13:12:22;7.90;;;4.87;;
12120;SDS011;6124;59.460;17.908;2022-10-31T13:14:50;9.17;;;5.70;;
12120;SDS011;6124;59.460;17.908;2022-10-31T13:17:21;9.57;;;5.63;;
12120;SDS011;6124;59.460;17.908;2022-10-31T13:19:50;12.00;;;5.97;;
12120;SDS011;6124;59.460;17.908;2022-10-31T13:22:20;11.17;;;5.77;;
12120;SDS011;6124;59.460;17.908;2022-10-31T13:24:52;7.73;;;4.93;;
12120;SDS011;6124;59.460;17.908;2022-10-31T13:27:21;8.63;;;5.27;;
12120;SDS011;6124;59.460;17.908;2022-10-31T13:29:52;9.43;;;5.37;;
12120;SDS011;6124;59.460;17.908;2022-10-31T13:32:22;8.60;;;5.63;;
12120;SDS011;6124;59.460;17.908;2022-10-31T13:34:51;11.30;;;5.93;;
12120;SDS011;6124;59.460;17.908;2022-10-31T13:37:21;11.93;;;5.40;;
12120;SDS011;6124;59.460;17.908;2022-10-31T13:39:55;10.53;;;6.00;;
12120;SDS011;6124;59.460;17.908;2022-10-31T13:42:29;11.20;;;5.93;;
12120;SDS011;6124;59.460;17.908;2022-10-31T13:45:06;10.97;;;5.90;;
12120;SDS011;6124;59.460;17.908;2022-10-31T13:47:34;12.07;;;5.87;;
12120;SDS011;6124;59.460;17.908;2022-10-31T13:50:14;8.53;;;5.40;;
12120;SDS011;6124;59.460;17.908;2022-10-31T13:52:45;8.03;;;5.53;;
12120;SDS011;6124;59.460;17.908;2022-10-31T13:57:54;9.57;;;5.90;;
12120;SDS011;6124;59.460;17.908;2022-10-31T14:00:23;10.90;;;5.80;;
12120;SDS011;6124;59.460;17.908;2022-10-31T14:02:51;10.83;;;5.83;;
12120;SDS011;6124;59.460;17.908;2022-10-31T14:05:23;7.57;;;4.97;;
12120;SDS011;6124;59.460;17.908;2022-10-31T14:07:51;10.27;;;5.17;;
12120;SDS011;6124;59.460;17.908;2022-10-31T14:10:21;9.77;;;5.40;;
12120;SDS011;6124;59.460;17.908;2022-10-31T14:12:49;10.00;;;4.90;;
12120;SDS011;6124;59.460;17.908;2022-10-31T14:15:17;10.37;;;5.10;;
12120;SDS011;6124;59.460;17.908;2022-10-31T14:17:45;11.67;;;5.57;;
12120;SDS011;6124;59.460;17.908;2022-10-31T14:20:23;10.33;;;5.77;;
12120;SDS011;6124;59.460;17.908;2022-10-31T14:22:51;9.43;;;5.57;;
12120;SDS011;6124;59.460;17.908;2022-10-31T14:25:24;8.80;;;5.60;;
12120;SDS011;6124;59.460;17.908;2022-10-31T14:27:52;6.60;;;4.80;;
12120;SDS011;6124;59.460;17.908;2022-10-31T14:30:20;9.83;;;5.40;;
12120;SDS011;6124;59.460;17.908;2022-10-31T14:32:49;7.90;;;4.90;;
12120;SDS011;6124;59.460;17.908;2022-10-31T14:35:17;9.73;;;5.23;;
12120;SDS011;6124;59.460;17.908;2022-10-31T14:37:53;7.53;;;5.10;;
12120;SDS011;6124;59.460;17.908;2022-10-31T14:40:27;7.87;;;5.27;;
12120;SDS011;6124;59.460;17.908;2022-10-31T14:43:05;10.37;;;5.60;;
12120;SDS011;6124;59.460;17.908;2022-10-31T14:45:39;11.27;;;5.60;;
12120;SDS011;6124;59.460;17.908;2022-10-31T14:48:11;10.83;;;5.57;;
12120;SDS011;6124;59.460;17.908;2022-10-31T14:50:42;8.73;;;5.60;;
12120;SDS011;6124;59.460;17.908;2022-10-31T14:53:13;8.20;;;4.70;;
12120;SDS011;6124;59.460;17.908;2022-10-31T14:55:43;6.13;;;4.90;;
12120;SDS011;6124;59.460;17.908;2022-10-31T14:58:13;11.07;;;5.70;;
12120;SDS011;6124;59.460;17.908;2022-10-31T15:00:42;8.40;;;5.30;;
12120;SDS011;6124;59.460;17.908;2022-10-31T15:03:11;8.77;;;5.10;;
12120;SDS011;6124;59.460;17.908;2022-10-31T15:05:41;8.80;;;5.43;;